createdAt,value
2019-02-22T00:00:19.151Z,18.98
2019-02-22T00:01:19.008Z,18.98
2019-02-22T00:02:19.165Z,18.97
2019-02-22T00:03:19.248Z,18.97
2019-02-22T00:04:19.152Z,18.98
2019-02-22T00:05:20.689Z,18.95
2019-02-22T00:06:19.251Z,18.95
2019-02-22T00:07:18.697Z,18.96
2019-02-22T00:08:20.715Z,18.96
2019-02-22T00:09:20.811Z,18.94
2019-02-22T00:10:18.897Z,18.94
2019-02-22T00:11:18.951Z,18.94
2019-02-22T00:12:19.434Z,18.94
2019-02-22T00:13:20.716Z,18.92
2019-02-22T00:14:18.705Z,18.92
2019-02-22T00:15:18.624Z,18.92
2019-02-22T00:16:19.364Z,18.92
2019-02-22T00:17:19.585Z,18.92
2019-02-22T00:18:18.983Z,18.91
2019-02-22T00:19:18.914Z,18.91
2019-02-22T00:20:18.986Z,18.9
2019-02-22T00:21:20.561Z,18.9
2019-02-22T00:22:19.177Z,18.89
2019-02-22T00:23:19.353Z,18.89
2019-02-22T00:24:18.851Z,18.89
2019-02-22T00:25:19.004Z,18.88
2019-02-22T00:26:18.864Z,18.88
2019-02-22T00:27:19.010Z,18.87
2019-02-22T00:28:19.276Z,18.88
2019-02-22T00:29:19.032Z,18.87
2019-02-22T00:30:21.475Z,18.87
2019-02-22T00:31:19.179Z,18.86
2019-02-22T00:32:18.777Z,18.85
2019-02-22T00:33:19.009Z,18.85
2019-02-22T00:34:20.011Z,18.84
2019-02-22T00:35:19.686Z,18.84
2019-02-22T00:36:19.097Z,18.83
2019-02-22T00:37:19.428Z,18.83
2019-02-22T00:38:19.005Z,18.83
2019-02-22T00:41:19.205Z,18.81
2019-02-22T00:42:18.725Z,18.81
2019-02-22T00:43:18.896Z,18.82
2019-02-22T00:44:19.084Z,18.81
2019-02-22T00:45:19.524Z,18.8
2019-02-22T00:46:19.152Z,18.8
2019-02-22T00:47:19.256Z,18.8
2019-02-22T00:48:18.687Z,18.8
2019-02-22T00:49:18.806Z,18.78
2019-02-22T00:50:18.692Z,18.79
2019-02-22T00:51:19.773Z,18.77
2019-02-22T00:52:19.293Z,18.78
2019-02-22T00:53:18.836Z,18.77
2019-02-22T00:54:18.913Z,18.77
2019-02-22T00:55:18.976Z,18.77
2019-02-22T00:56:19.743Z,18.76
2019-02-22T00:57:19.550Z,18.75
2019-02-22T00:58:19.251Z,18.75
2019-02-22T00:59:18.715Z,18.76
2019-02-22T01:00:19.037Z,18.75
2019-02-22T01:01:19.011Z,18.75
2019-02-22T01:02:19.281Z,18.75
2019-02-22T01:03:19.085Z,18.74
2019-02-22T01:04:19.082Z,18.74
2019-02-22T01:05:18.892Z,18.73
2019-02-22T01:06:19.185Z,18.73
2019-02-22T01:07:19.009Z,18.73
2019-02-22T01:08:18.881Z,18.74
2019-02-22T01:09:19.008Z,18.72
2019-02-22T01:10:18.807Z,18.72
2019-02-22T01:11:19.445Z,18.73
2019-02-22T01:12:18.954Z,18.73
2019-02-22T01:13:18.750Z,18.72
2019-02-22T01:14:19.298Z,18.71
2019-02-22T01:15:19.205Z,18.71
2019-02-22T01:16:18.853Z,18.71
2019-02-22T01:17:18.796Z,18.7
2019-02-22T01:18:18.857Z,18.71
2019-02-22T01:19:20.299Z,18.71
2019-02-22T01:20:18.948Z,18.71
2019-02-22T01:21:19.254Z,18.71
2019-02-22T01:22:19.098Z,18.7
2019-02-22T01:23:19.231Z,18.7
2019-02-22T01:24:18.957Z,18.69
2019-02-22T01:25:18.841Z,18.69
2019-02-22T01:26:20.757Z,18.69
2019-02-22T01:27:18.656Z,18.69
2019-02-22T01:28:19.579Z,18.69
2019-02-22T01:29:18.926Z,18.69
2019-02-22T01:30:18.988Z,18.67
2019-02-22T01:31:19.032Z,18.67
2019-02-22T01:32:19.003Z,18.66
2019-02-22T01:33:18.816Z,18.67
2019-02-22T01:34:20.777Z,18.67
2019-02-22T01:35:18.845Z,18.66
2019-02-22T01:36:18.882Z,18.66
2019-02-22T01:37:18.757Z,18.66
2019-02-22T01:38:18.615Z,18.64
2019-02-22T01:39:18.671Z,18.65
2019-02-22T01:40:18.836Z,18.65
2019-02-22T01:41:18.676Z,18.64
2019-02-22T01:42:18.742Z,18.64
2019-02-22T01:43:18.970Z,18.64
2019-02-22T01:44:20.165Z,18.63
2019-02-22T01:45:19.177Z,18.63
2019-02-22T01:46:18.697Z,18.63
2019-02-22T01:47:19.179Z,18.62
2019-02-22T01:48:18.981Z,18.62
2019-02-22T01:49:19.145Z,18.62
2019-02-22T01:50:19.115Z,18.61
2019-02-22T01:51:19.134Z,18.62
2019-02-22T01:52:19.027Z,18.61
2019-02-22T01:53:19.244Z,18.61
2019-02-22T01:54:19.652Z,18.61
2019-02-22T01:55:19.040Z,18.61
2019-02-22T01:56:18.784Z,18.6
2019-02-22T01:57:18.637Z,18.6
2019-02-22T01:58:18.706Z,18.6
2019-02-22T01:59:18.805Z,18.6
2019-02-22T02:00:20.719Z,18.59
2019-02-22T02:01:19.135Z,18.59
2019-02-22T02:02:18.599Z,18.59
2019-02-22T02:03:18.979Z,18.58
2019-02-22T02:04:18.784Z,18.58
2019-02-22T02:05:18.711Z,18.58
2019-02-22T02:06:19.104Z,18.58
2019-02-22T02:07:18.708Z,18.58
2019-02-22T02:08:18.781Z,18.58
2019-02-22T02:09:19.089Z,18.58
2019-02-22T02:10:18.680Z,18.57
2019-02-22T02:11:18.852Z,18.58
2019-02-22T02:12:18.953Z,18.57
2019-02-22T02:13:18.955Z,18.57
2019-02-22T02:14:19.185Z,18.55
2019-02-22T02:15:18.994Z,18.56
2019-02-22T02:16:18.940Z,18.56
2019-02-22T02:17:19.086Z,18.56
2019-02-22T02:18:19.613Z,18.56
2019-02-22T02:19:18.733Z,18.55
2019-02-22T02:20:19.824Z,18.55
2019-02-22T02:21:19.100Z,18.54
2019-02-22T02:22:19.353Z,18.54
2019-02-22T02:23:20.715Z,18.55
2019-02-22T02:24:18.766Z,18.54
2019-02-22T02:25:19.673Z,18.54
2019-02-22T02:26:19.871Z,18.54
2019-02-22T02:27:18.593Z,18.54
2019-02-22T02:28:19.721Z,18.53
2019-02-22T02:29:19.074Z,18.54
2019-02-22T02:30:19.201Z,18.53
2019-02-22T02:31:19.020Z,18.53
2019-02-22T02:32:19.207Z,18.53
2019-02-22T02:33:19.109Z,18.52
2019-02-22T02:34:20.738Z,18.52
2019-02-22T02:35:18.723Z,18.52
2019-02-22T02:36:19.030Z,18.52
2019-02-22T02:37:19.252Z,18.52
2019-02-22T02:38:20.909Z,18.51
2019-02-22T02:39:18.876Z,18.51
2019-02-22T02:40:19.377Z,18.51
2019-02-22T02:41:19.056Z,18.5
2019-02-22T02:42:19.002Z,18.51
2019-02-22T02:43:19.113Z,18.51
2019-02-22T02:44:18.880Z,18.51
2019-02-22T02:45:19.401Z,18.5
2019-02-22T02:46:19.403Z,18.49
2019-02-22T02:47:19.870Z,18.49
2019-02-22T02:48:19.811Z,18.49
2019-02-22T02:49:18.936Z,18.49
2019-02-22T02:50:18.908Z,18.49
2019-02-22T02:51:19.798Z,18.48
2019-02-22T02:52:19.536Z,18.49
2019-02-22T02:53:19.128Z,18.49
2019-02-22T02:54:19.347Z,18.48
2019-02-22T02:55:19.168Z,18.48
2019-02-22T02:56:20.680Z,18.47
2019-02-22T02:57:19.402Z,18.47
2019-02-22T02:58:19.082Z,18.47
2019-02-22T02:59:19.387Z,18.48
2019-02-22T03:00:18.848Z,18.47
2019-02-22T03:01:19.011Z,18.46
2019-02-22T03:02:19.107Z,18.46
2019-02-22T03:03:19.328Z,18.46
2019-02-22T03:04:20.595Z,18.46
2019-02-22T03:05:18.881Z,18.44
2019-02-22T03:06:18.732Z,18.45
2019-02-22T03:07:20.648Z,18.45
2019-02-22T03:08:19.577Z,18.44
2019-02-22T03:09:18.942Z,18.45
2019-02-22T03:10:18.878Z,18.45
2019-02-22T03:11:20.914Z,18.44
2019-02-22T03:12:19.037Z,18.43
2019-02-22T03:13:18.698Z,18.43
2019-02-22T03:14:19.277Z,18.43
2019-02-22T03:15:19.672Z,18.42
2019-02-22T03:16:18.941Z,18.42
2019-02-22T03:17:19.003Z,18.43
2019-02-22T03:18:18.910Z,18.43
2019-02-22T03:19:18.987Z,18.43
2019-02-22T03:20:20.553Z,18.42
2019-02-22T03:21:19.047Z,18.42
2019-02-22T03:22:19.755Z,18.41
2019-02-22T03:23:19.364Z,18.41
2019-02-22T03:24:19.250Z,18.42
2019-02-22T03:25:19.006Z,18.41
2019-02-22T03:26:18.905Z,18.41
2019-02-22T03:27:19.127Z,18.41
2019-02-22T03:28:18.969Z,18.41
2019-02-22T03:29:18.898Z,18.41
2019-02-22T03:30:19.831Z,18.41
2019-02-22T03:31:19.667Z,18.4
2019-02-22T03:32:18.652Z,18.4
2019-02-22T03:33:18.910Z,18.4
2019-02-22T03:34:19.935Z,18.4
2019-02-22T03:35:19.010Z,18.39
2019-02-22T03:36:18.957Z,18.38
2019-02-22T03:37:19.161Z,18.39
2019-02-22T03:38:19.056Z,18.39
2019-02-22T03:39:19.051Z,18.38
2019-02-22T03:40:18.687Z,18.38
2019-02-22T03:41:18.812Z,18.38
2019-02-22T03:42:19.231Z,18.38
2019-02-22T03:43:18.905Z,18.37
2019-02-22T03:44:18.733Z,18.37
2019-02-22T03:45:19.129Z,18.37
2019-02-22T03:46:18.928Z,18.37
2019-02-22T03:47:19.012Z,18.37
2019-02-22T03:48:19.162Z,18.36
2019-02-22T03:49:18.923Z,18.37
2019-02-22T03:50:19.159Z,18.37
2019-02-22T03:51:19.362Z,18.36
2019-02-22T03:52:19.485Z,18.36
2019-02-22T03:53:19.158Z,18.36
2019-02-22T03:54:19.180Z,18.35
2019-02-22T03:55:19.069Z,18.36
2019-02-22T03:56:18.988Z,18.35
2019-02-22T03:57:19.902Z,18.35
2019-02-22T03:58:19.007Z,18.35
2019-02-22T03:59:19.106Z,18.36
2019-02-22T04:00:19.647Z,18.35
2019-02-22T04:01:20.598Z,18.35
2019-02-22T04:02:18.922Z,18.34
2019-02-22T04:03:19.021Z,18.33
2019-02-22T04:04:19.058Z,18.34
2019-02-22T04:05:18.940Z,18.33
2019-02-22T04:06:19.261Z,18.33
2019-02-22T04:07:19.174Z,18.33
2019-02-22T04:08:19.063Z,18.32
2019-02-22T04:09:19.135Z,18.32
2019-02-22T04:10:19.184Z,18.31
2019-02-22T04:11:18.979Z,18.32
2019-02-22T04:12:19.899Z,18.32
2019-02-22T04:13:18.836Z,18.31
2019-02-22T04:14:19.704Z,18.31
2019-02-22T04:15:19.022Z,18.31
2019-02-22T04:16:18.755Z,18.31
2019-02-22T04:17:20.665Z,18.31
2019-02-22T04:18:19.542Z,18.31
2019-02-22T04:19:19.281Z,18.31
2019-02-22T04:20:18.951Z,18.3
2019-02-22T04:21:18.844Z,18.3
2019-02-22T04:22:18.890Z,18.3
2019-02-22T04:23:19.186Z,18.3
2019-02-22T04:24:18.902Z,18.3
2019-02-22T04:25:19.050Z,18.3
2019-02-22T04:26:18.903Z,18.3
2019-02-22T04:27:18.737Z,18.29
2019-02-22T04:28:19.603Z,18.29
2019-02-22T04:29:19.108Z,18.3
2019-02-22T04:30:18.629Z,18.29
2019-02-22T04:31:19.057Z,18.28
2019-02-22T04:32:19.027Z,18.29
2019-02-22T04:33:19.059Z,18.28
2019-02-22T04:34:19.268Z,18.27
2019-02-22T04:35:19.658Z,18.28
2019-02-22T04:36:19.277Z,18.28
2019-02-22T04:37:19.070Z,18.28
2019-02-22T04:38:18.895Z,18.28
2019-02-22T04:39:18.871Z,18.28
2019-02-22T04:40:18.997Z,18.28
2019-02-22T04:41:19.190Z,18.27
2019-02-22T04:42:18.911Z,18.27
2019-02-22T04:43:18.933Z,18.28
2019-02-22T04:44:20.708Z,18.28
2019-02-22T04:45:18.916Z,18.3
2019-02-22T04:46:19.351Z,18.31
2019-02-22T04:47:18.928Z,18.3
2019-02-22T04:48:19.038Z,18.31
2019-02-22T04:49:19.050Z,18.32
2019-02-22T04:50:19.073Z,18.32
2019-02-22T04:51:18.800Z,18.34
2019-02-22T04:52:18.874Z,18.34
2019-02-22T04:53:18.922Z,18.35
2019-02-22T04:54:18.994Z,18.35
2019-02-22T04:55:19.583Z,18.36
2019-02-22T04:56:19.180Z,18.35
2019-02-22T04:57:19.211Z,18.36
2019-02-22T04:58:18.719Z,18.37
2019-02-22T04:59:18.929Z,18.38
2019-02-22T05:00:18.606Z,18.39
2019-02-22T05:01:19.075Z,18.4
2019-02-22T05:02:19.019Z,18.43
2019-02-22T05:03:19.056Z,18.43
2019-02-22T05:04:18.972Z,18.45
2019-02-22T05:05:18.664Z,18.47
2019-02-22T05:06:18.637Z,18.48
2019-02-22T05:07:18.901Z,18.5
2019-02-22T05:08:18.822Z,18.51
2019-02-22T05:09:18.671Z,18.54
2019-02-22T05:10:18.841Z,18.55
2019-02-22T05:11:19.060Z,18.56
2019-02-22T05:12:18.656Z,18.58
2019-02-22T05:13:19.204Z,18.59
2019-02-22T05:14:18.822Z,18.61
2019-02-22T05:15:18.822Z,18.61
2019-02-22T05:16:19.048Z,18.64
2019-02-22T05:17:18.948Z,18.66
2019-02-22T05:18:19.894Z,18.66
2019-02-22T05:19:18.856Z,18.68
2019-02-22T05:20:19.341Z,18.69
2019-02-22T05:21:18.954Z,18.7
2019-02-22T05:22:18.711Z,18.72
2019-02-22T05:23:19.215Z,18.73
2019-02-22T05:24:18.812Z,18.75
2019-02-22T05:25:19.301Z,18.77
2019-02-22T05:26:18.874Z,18.78
2019-02-22T05:27:19.268Z,18.79
2019-02-22T05:28:20.886Z,18.81
2019-02-22T05:29:20.596Z,18.82
2019-02-22T05:30:19.257Z,18.83
2019-02-22T05:31:18.731Z,18.85
2019-02-22T05:32:19.047Z,18.85
2019-02-22T05:33:19.459Z,18.87
2019-02-22T05:34:18.599Z,18.88
2019-02-22T05:35:19.166Z,18.9
2019-02-22T05:36:19.226Z,18.91
2019-02-22T05:37:18.739Z,18.93
2019-02-22T05:38:18.901Z,18.93
2019-02-22T05:39:19.672Z,18.94
2019-02-22T05:40:19.210Z,18.96
2019-02-22T05:41:19.092Z,18.96
2019-02-22T05:42:22.747Z,18.99
2019-02-22T05:43:19.040Z,19
2019-02-22T05:44:18.961Z,19.01
2019-02-22T05:45:18.905Z,19.01
2019-02-22T05:46:19.373Z,19.03
2019-02-22T05:47:19.159Z,19.04
2019-02-22T05:48:18.766Z,19.05
2019-02-22T05:49:22.111Z,19.06
2019-02-22T05:50:19.071Z,19.07
2019-02-22T05:51:18.889Z,19.08
2019-02-22T05:52:20.568Z,19.1
2019-02-22T05:53:18.943Z,19.12
2019-02-22T05:54:18.661Z,19.13
2019-02-22T05:55:18.630Z,19.13
2019-02-22T05:56:20.607Z,19.15
2019-02-22T05:57:18.767Z,19.16
2019-02-22T05:58:19.223Z,19.17
2019-02-22T05:59:18.768Z,19.18
2019-02-22T06:00:19.144Z,19.19
2019-02-22T06:01:20.657Z,19.2
2019-02-22T06:02:19.692Z,19.22
2019-02-22T06:03:18.988Z,19.22
2019-02-22T06:04:18.705Z,19.23
2019-02-22T06:05:20.480Z,19.24
2019-02-22T06:06:19.007Z,19.25
2019-02-22T06:07:19.211Z,19.27
2019-02-22T06:08:18.813Z,19.28
2019-02-22T06:09:18.879Z,19.28
2019-02-22T06:10:19.121Z,19.28
2019-02-22T06:11:20.588Z,19.31
2019-02-22T06:12:19.076Z,19.32
2019-02-22T06:13:18.813Z,19.33
2019-02-22T06:14:19.156Z,19.34
2019-02-22T06:15:19.038Z,19.34
2019-02-22T06:16:18.623Z,19.35
2019-02-22T06:17:19.006Z,19.35
2019-02-22T06:18:19.279Z,19.37
2019-02-22T06:19:18.765Z,19.38
2019-02-22T06:20:18.854Z,19.39
2019-02-22T06:21:19.136Z,19.4
2019-02-22T06:22:28.929Z,19.4
2019-02-22T06:23:19.872Z,19.4
2019-02-22T06:24:19.657Z,19.41
2019-02-22T06:25:18.746Z,19.41
2019-02-22T06:26:18.820Z,19.42
2019-02-22T06:27:19.947Z,19.44
2019-02-22T06:28:18.620Z,19.45
2019-02-22T06:29:19.051Z,19.45
2019-02-22T06:30:18.773Z,19.46
2019-02-22T06:31:18.859Z,19.47
2019-02-22T06:32:19.717Z,19.48
2019-02-22T06:33:18.872Z,19.48
2019-02-22T06:34:18.747Z,19.48
2019-02-22T06:35:18.996Z,19.5
2019-02-22T06:36:18.910Z,19.5
2019-02-22T06:37:19.018Z,19.5
2019-02-22T06:38:19.937Z,19.5
2019-02-22T06:39:20.492Z,19.51
2019-02-22T06:40:18.629Z,19.52
2019-02-22T06:41:18.743Z,19.53
2019-02-22T06:42:18.536Z,19.53
2019-02-22T06:43:18.926Z,19.53
2019-02-22T06:44:18.667Z,19.54
2019-02-22T06:45:19.913Z,19.53
2019-02-22T06:46:18.756Z,19.54
2019-02-22T06:47:19.689Z,19.55
2019-02-22T06:48:18.841Z,19.55
2019-02-22T06:49:18.752Z,19.56
2019-02-22T06:50:18.883Z,19.57
2019-02-22T06:51:18.756Z,19.57
2019-02-22T06:52:19.420Z,19.57
2019-02-22T06:53:19.572Z,19.57
2019-02-22T06:54:19.211Z,19.58
2019-02-22T06:55:18.857Z,19.58
2019-02-22T06:56:18.695Z,19.6
2019-02-22T06:57:18.950Z,19.6
2019-02-22T06:58:19.473Z,19.6
2019-02-22T06:59:19.077Z,19.6
2019-02-22T07:00:18.977Z,19.6
2019-02-22T07:01:18.849Z,19.61
2019-02-22T07:02:19.213Z,19.62
2019-02-22T07:03:19.076Z,19.63
2019-02-22T07:04:19.780Z,19.62
2019-02-22T07:05:19.625Z,19.63
2019-02-22T07:06:20.086Z,19.64
2019-02-22T07:07:20.462Z,19.63
2019-02-22T07:08:19.440Z,19.64
2019-02-22T07:09:18.942Z,19.64
2019-02-22T07:10:18.677Z,19.65
2019-02-22T07:11:18.818Z,19.65
2019-02-22T07:12:18.847Z,19.66
2019-02-22T07:13:18.908Z,19.66
2019-02-22T07:14:18.962Z,19.66
2019-02-22T07:15:19.074Z,19.67
2019-02-22T07:16:18.911Z,19.67
2019-02-22T07:17:19.067Z,19.68
2019-02-22T07:18:18.990Z,19.69
2019-02-22T07:19:18.747Z,19.68
2019-02-22T07:20:18.914Z,19.69
2019-02-22T07:21:19.370Z,19.7
2019-02-22T07:22:18.556Z,19.7
2019-02-22T07:23:18.623Z,19.7
2019-02-22T07:24:19.405Z,19.71
2019-02-22T07:25:19.050Z,19.71
2019-02-22T07:26:19.048Z,19.71
2019-02-22T07:27:18.747Z,19.71
2019-02-22T07:28:20.507Z,19.71
2019-02-22T07:29:19.102Z,19.72
2019-02-22T07:30:20.582Z,19.72
2019-02-22T07:31:20.230Z,19.73
2019-02-22T07:32:19.146Z,19.74
2019-02-22T07:33:19.606Z,19.74
2019-02-22T07:34:18.652Z,19.74
2019-02-22T07:35:18.892Z,19.75
2019-02-22T07:36:18.935Z,19.74
2019-02-22T07:37:18.923Z,19.75
2019-02-22T07:38:19.254Z,19.75
2019-02-22T07:39:27.278Z,19.75
2019-02-22T07:40:19.919Z,19.75
2019-02-22T07:41:18.844Z,19.76
2019-02-22T07:42:18.819Z,19.76
2019-02-22T07:43:18.791Z,19.77
2019-02-22T07:44:18.747Z,19.77
2019-02-22T07:45:19.275Z,19.77
2019-02-22T07:46:18.699Z,19.78
2019-02-22T07:47:18.682Z,19.79
2019-02-22T07:48:18.800Z,19.79
2019-02-22T07:49:18.874Z,19.79
2019-02-22T07:50:18.923Z,19.79
2019-02-22T07:51:18.681Z,19.82
2019-02-22T07:52:19.379Z,19.82
2019-02-22T07:53:20.457Z,19.83
2019-02-22T07:54:18.758Z,19.83
2019-02-22T07:55:18.976Z,19.85
2019-02-22T07:56:19.253Z,19.84
2019-02-22T07:57:18.627Z,19.84
2019-02-22T07:58:18.420Z,19.87
2019-02-22T07:59:18.502Z,19.87
2019-02-22T08:00:18.738Z,19.86
2019-02-22T08:01:18.863Z,19.86
2019-02-22T08:02:19.235Z,19.86
2019-02-22T08:03:20.628Z,19.86
2019-02-22T08:04:18.825Z,19.86
2019-02-22T08:05:18.711Z,19.87
2019-02-22T08:06:19.039Z,19.86
2019-02-22T08:07:20.518Z,19.86
2019-02-22T08:08:19.028Z,19.87
2019-02-22T08:09:18.801Z,19.87
2019-02-22T08:10:18.943Z,19.87
2019-02-22T08:11:18.805Z,19.88
2019-02-22T08:12:19.714Z,19.88
2019-02-22T08:13:19.872Z,19.88
2019-02-22T08:14:19.004Z,19.88
2019-02-22T08:15:19.393Z,19.88
2019-02-22T08:16:18.594Z,19.89
2019-02-22T08:17:20.038Z,19.9
2019-02-22T08:18:19.035Z,19.89
2019-02-22T08:19:18.814Z,19.9
2019-02-22T08:20:19.138Z,19.9
2019-02-22T08:21:19.135Z,19.91
2019-02-22T08:22:20.686Z,19.9
2019-02-22T08:23:18.840Z,19.9
2019-02-22T08:24:18.562Z,19.91
2019-02-22T08:25:18.703Z,19.91
2019-02-22T08:26:18.685Z,19.91
2019-02-22T08:27:18.976Z,19.9
2019-02-22T08:28:19.052Z,19.92
2019-02-22T08:29:19.417Z,19.92
2019-02-22T08:30:18.689Z,19.92
2019-02-22T08:31:18.800Z,19.93
2019-02-22T08:32:18.897Z,19.93
2019-02-22T08:33:19.118Z,19.93
2019-02-22T08:34:20.361Z,19.93
2019-02-22T08:35:18.721Z,19.93
2019-02-22T08:36:18.818Z,19.93
2019-02-22T08:37:18.649Z,19.93
2019-02-22T08:38:19.023Z,19.93
2019-02-22T08:39:18.958Z,19.93
2019-02-22T08:40:18.699Z,19.94
2019-02-22T08:41:18.734Z,19.94
2019-02-22T08:42:18.772Z,19.94
2019-02-22T08:43:18.894Z,19.94
2019-02-22T08:44:18.774Z,19.94
2019-02-22T08:45:19.618Z,19.95
2019-02-22T08:46:18.917Z,19.95
2019-02-22T08:47:18.859Z,19.96
2019-02-22T08:48:19.521Z,19.95
2019-02-22T08:49:19.248Z,19.95
2019-02-22T08:50:18.802Z,19.95
2019-02-22T08:51:19.070Z,19.95
2019-02-22T08:52:19.037Z,19.95
2019-02-22T08:53:19.172Z,19.95
2019-02-22T08:54:19.374Z,19.96
2019-02-22T08:55:18.780Z,19.96
2019-02-22T08:56:19.882Z,19.97
2019-02-22T08:57:18.891Z,19.97
2019-02-22T08:58:18.642Z,19.97
2019-02-22T08:59:18.981Z,19.98
2019-02-22T09:00:18.603Z,19.97
2019-02-22T09:01:18.907Z,19.97
2019-02-22T09:02:18.765Z,19.98
2019-02-22T09:03:18.779Z,19.98
2019-02-22T09:04:19.379Z,19.99
2019-02-22T09:05:18.785Z,19.99
2019-02-22T09:06:18.565Z,19.99
2019-02-22T09:07:19.378Z,19.99
2019-02-22T09:08:18.771Z,19.99
2019-02-22T09:09:18.697Z,19.98
2019-02-22T09:10:19.112Z,19.99
2019-02-22T09:11:18.862Z,19.99
2019-02-22T09:12:18.935Z,19.99
2019-02-22T09:13:19.025Z,19.99
2019-02-22T09:14:18.798Z,19.98
2019-02-22T09:15:18.807Z,19.99
2019-02-22T09:16:18.930Z,19.99
2019-02-22T09:17:19.136Z,19.98
2019-02-22T09:18:19.353Z,19.98
2019-02-22T09:19:19.655Z,19.99
2019-02-22T09:20:18.725Z,19.98
2019-02-22T09:21:19.381Z,19.98
2019-02-22T09:22:22.633Z,19.98
2019-02-22T09:23:19.179Z,19.99
2019-02-22T09:24:19.406Z,19.98
2019-02-22T09:25:18.694Z,19.99
2019-02-22T09:26:18.879Z,19.98
2019-02-22T09:27:19.007Z,19.97
2019-02-22T09:28:18.652Z,19.98
2019-02-22T09:29:19.100Z,19.98
2019-02-22T09:30:19.138Z,19.98
2019-02-22T09:31:18.764Z,19.97
2019-02-22T09:32:18.966Z,19.97
2019-02-22T09:33:19.036Z,19.96
2019-02-22T09:34:18.966Z,19.97
2019-02-22T09:35:18.985Z,19.97
2019-02-22T09:36:19.081Z,19.98
2019-02-22T09:37:20.444Z,19.9
2019-02-22T09:38:18.677Z,19.87
2019-02-22T09:39:18.716Z,19.84
2019-02-22T09:40:19.094Z,19.78
2019-02-22T09:41:20.103Z,19.71
2019-02-22T09:42:18.814Z,19.69
2019-02-22T09:43:18.812Z,19.69
2019-02-22T09:44:18.786Z,19.68
2019-02-22T09:45:18.724Z,19.67
2019-02-22T09:46:18.622Z,19.6
2019-02-22T09:47:18.797Z,19.55
2019-02-22T09:48:18.760Z,19.54
2019-02-22T09:49:18.977Z,19.51
2019-02-22T09:50:19.287Z,19.47
2019-02-22T09:51:18.931Z,19.47
2019-02-22T09:52:18.498Z,19.47
2019-02-22T09:53:20.551Z,19.43
2019-02-22T09:54:18.553Z,19.4
2019-02-22T09:55:18.693Z,19.42
2019-02-22T09:56:19.713Z,19.43
2019-02-22T09:57:18.802Z,19.44
2019-02-22T09:58:20.478Z,19.44
2019-02-22T09:59:18.830Z,19.46
2019-02-22T10:00:18.719Z,19.45
2019-02-22T10:01:19.384Z,19.45
2019-02-22T10:02:18.771Z,19.46
2019-02-22T10:03:19.481Z,19.46
2019-02-22T10:04:19.029Z,19.44
2019-02-22T10:05:18.983Z,19.42
2019-02-22T10:06:18.582Z,19.4
2019-02-22T10:07:19.096Z,19.41
2019-02-22T10:08:19.037Z,19.41
2019-02-22T10:09:18.655Z,19.43
2019-02-22T10:10:18.714Z,19.41
2019-02-22T10:11:19.013Z,19.4
2019-02-22T10:12:19.293Z,19.39
2019-02-22T10:13:19.268Z,19.4
2019-02-22T10:14:20.603Z,19.38
2019-02-22T10:15:18.996Z,19.39
2019-02-22T10:16:19.043Z,19.37
2019-02-22T10:17:18.662Z,19.38
2019-02-22T10:18:18.685Z,19.39
2019-02-22T10:19:18.776Z,19.37
2019-02-22T10:20:18.811Z,19.35
2019-02-22T10:21:18.976Z,19.36
2019-02-22T10:22:19.021Z,19.34
2019-02-22T10:23:18.910Z,19.36
2019-02-22T10:24:18.896Z,19.33
2019-02-22T10:25:20.237Z,19.34
2019-02-22T10:26:21.215Z,19.32
2019-02-22T10:27:18.713Z,19.3
2019-02-22T10:28:18.854Z,19.33
2019-02-22T10:29:19.035Z,19.32
2019-02-22T10:30:18.594Z,19.32
2019-02-22T10:31:18.591Z,19.33
2019-02-22T10:32:19.761Z,19.31
2019-02-22T10:33:18.753Z,19.3
2019-02-22T10:34:18.607Z,19.31
2019-02-22T10:35:18.651Z,19.31
2019-02-22T10:36:18.827Z,19.31
2019-02-22T10:37:18.596Z,19.3
2019-02-22T10:38:18.747Z,19.3
2019-02-22T10:39:18.667Z,19.29
2019-02-22T10:40:18.668Z,19.32
2019-02-22T10:41:19.093Z,19.31
2019-02-22T10:42:18.932Z,19.31
2019-02-22T10:43:18.962Z,19.32
2019-02-22T10:44:18.679Z,19.32
2019-02-22T10:45:18.884Z,19.32
2019-02-22T10:46:18.850Z,19.3
2019-02-22T10:47:20.436Z,19.27
2019-02-22T10:48:19.651Z,19.33
2019-02-22T10:49:18.816Z,19.37
2019-02-22T10:50:20.444Z,19.41
2019-02-22T10:51:18.675Z,19.44
2019-02-22T10:52:19.118Z,19.47
2019-02-22T10:53:18.714Z,19.5
2019-02-22T10:54:18.706Z,19.52
2019-02-22T10:55:19.236Z,19.54
2019-02-22T10:56:18.551Z,19.56
2019-02-22T10:57:18.831Z,19.57
2019-02-22T10:58:18.844Z,19.58
2019-02-22T10:59:18.728Z,19.61
2019-02-22T11:00:18.666Z,19.61
2019-02-22T11:01:19.001Z,19.63
2019-02-22T11:02:18.619Z,19.65
2019-02-22T11:03:18.875Z,19.64
2019-02-22T11:04:19.120Z,19.65
2019-02-22T11:05:19.501Z,19.67
2019-02-22T11:06:18.889Z,19.66
2019-02-22T11:07:18.691Z,19.66
2019-02-22T11:08:18.913Z,19.7
2019-02-22T11:09:19.725Z,19.7
2019-02-22T11:10:19.614Z,19.71
2019-02-22T11:11:18.575Z,19.72
2019-02-22T11:12:19.328Z,19.73
2019-02-22T11:13:21.292Z,19.75
2019-02-22T11:14:28.376Z,19.76
2019-02-22T11:15:18.758Z,19.77
2019-02-22T11:16:19.087Z,19.79
2019-02-22T11:17:18.887Z,19.8
2019-02-22T11:18:18.965Z,19.8
2019-02-22T11:19:18.749Z,19.83
2019-02-22T11:20:20.485Z,19.83
2019-02-22T11:21:19.094Z,19.83
2019-02-22T11:22:18.690Z,19.8
2019-02-22T11:23:19.050Z,19.79
2019-02-22T11:24:20.508Z,19.85
2019-02-22T11:25:18.394Z,19.86
2019-02-22T11:26:18.991Z,19.87
2019-02-22T11:27:19.334Z,19.87
2019-02-22T11:28:18.652Z,19.88
2019-02-22T11:29:20.473Z,19.91
2019-02-22T11:30:19.553Z,19.91
2019-02-22T11:31:18.753Z,19.92
2019-02-22T11:32:19.732Z,19.93
2019-02-22T11:33:19.398Z,19.93
2019-02-22T11:34:18.808Z,19.96
2019-02-22T11:35:18.634Z,19.96
2019-02-22T11:36:19.120Z,19.99
2019-02-22T11:37:18.703Z,20
2019-02-22T11:38:18.833Z,20.01
2019-02-22T11:39:18.534Z,20.02
2019-02-22T11:40:19.037Z,20.04
2019-02-22T11:41:18.644Z,20.05
2019-02-22T11:42:20.382Z,20.05
2019-02-22T11:43:18.635Z,20.08
2019-02-22T11:44:18.704Z,20.09
2019-02-22T11:45:18.697Z,20.1
2019-02-22T11:46:18.969Z,20.11
2019-02-22T11:47:18.668Z,20.12
2019-02-22T11:48:18.787Z,20.15
2019-02-22T11:49:18.480Z,20.15
2019-02-22T11:50:18.327Z,20.15
2019-02-22T11:51:18.820Z,20.17
2019-02-22T11:52:18.703Z,20.17
2019-02-22T11:53:18.544Z,20.18
2019-02-22T11:54:18.848Z,20.19
2019-02-22T11:55:20.539Z,20.18
2019-02-22T11:56:18.814Z,20.19
2019-02-22T11:57:20.503Z,20.2
2019-02-22T11:58:19.048Z,20.21
2019-02-22T11:59:18.649Z,20.2
2019-02-22T12:00:18.616Z,20.22
2019-02-22T12:01:18.992Z,20.22
2019-02-22T12:02:18.795Z,20.22
2019-02-22T12:03:24.485Z,20.22
2019-02-22T12:04:19.160Z,20.25
2019-02-22T12:05:18.372Z,20.23
2019-02-22T12:06:18.817Z,20.23
2019-02-22T12:07:19.021Z,20.22
2019-02-22T12:08:18.836Z,20.22
2019-02-22T12:09:18.701Z,20.21
2019-02-22T12:10:18.779Z,20.22
2019-02-22T12:11:19.093Z,20.21
2019-02-22T12:12:18.846Z,20.2
2019-02-22T12:13:19.083Z,20.2
2019-02-22T12:14:18.597Z,20.18
2019-02-22T12:15:18.982Z,20.2
2019-02-22T12:16:19.000Z,20.21
2019-02-22T12:17:19.504Z,20.2
2019-02-22T12:18:19.014Z,20.19
2019-02-22T12:19:20.407Z,20.19
2019-02-22T12:20:18.511Z,20.19
2019-02-22T12:21:18.813Z,20.2
2019-02-22T12:22:18.721Z,20.18
2019-02-22T12:23:18.823Z,20.19
2019-02-22T12:24:18.940Z,20.19
2019-02-22T12:25:19.972Z,20.18
2019-02-22T12:26:19.613Z,20.18
2019-02-22T12:27:19.378Z,20.18
2019-02-22T12:28:18.459Z,20.17
2019-02-22T12:29:18.483Z,20.17
2019-02-22T12:30:18.627Z,20.16
2019-02-22T12:31:19.013Z,20.16
2019-02-22T12:32:18.700Z,20.15
2019-02-22T12:33:18.793Z,20.14
2019-02-22T12:34:19.600Z,20.15
2019-02-22T12:35:18.607Z,20.14
2019-02-22T12:36:18.627Z,20.13
2019-02-22T12:37:19.769Z,20.13
2019-02-22T12:38:18.613Z,20.14
2019-02-22T12:39:19.332Z,20.13
2019-02-22T12:40:18.948Z,20.13
2019-02-22T12:41:18.616Z,20.14
2019-02-22T12:42:18.686Z,20.12
2019-02-22T12:43:18.776Z,20.12
2019-02-22T12:44:18.755Z,20.13
2019-02-22T12:45:18.630Z,20.12
2019-02-22T12:46:18.682Z,20.12
2019-02-22T12:47:18.976Z,20.12
2019-02-22T12:48:19.252Z,20.11
2019-02-22T12:49:18.699Z,20.11
2019-02-22T12:50:18.580Z,20.1
2019-02-22T12:51:18.974Z,20.1
2019-02-22T12:52:18.647Z,20.09
2019-02-22T12:53:18.514Z,20.09
2019-02-22T12:54:18.806Z,20.08
2019-02-22T12:55:18.488Z,20.08
2019-02-22T12:56:21.358Z,20.08
2019-02-22T12:57:19.088Z,20.08